Time;durP1;ratioP1;P1;durP2;ratioP2;P2;SDS_P1;SDS_P2;PMS_P1;PMS_P2;Temp;Humidity;BMP_temperature;BMP_pressure;BME280_temperature;BME280_humidity;BME280_pressure;Samples;Min_cycle;Max_cycle;Signal;HPM_P1;HPM_P2
2023/04/01 00:09:48;;;;;;;1.47;0.30;;;;;;;;;;20750246;28;20245;-71
2023/04/01 00:19:50;;;;;;;0.83;0.60;;;;;;;;;;20750965;28;20215;-70
2023/04/01 00:29:52;;;;;;;0.17;0.13;;;;;;;;;;20733371;28;20219;-71
2023/04/01 00:39:53;;;;;;;0.60;0.40;;;;;;;;;;20732016;28;20219;-71
2023/04/01 00:49:55;;;;;;;0.60;0.30;;;;;;;;;;20730726;28;20227;-72
2023/04/01 00:59:57;;;;;;;2.47;0.50;;;;;;;;;;20747844;28;20207;-70
2023/04/01 01:10:13;;;;;;;0.47;0.30;;;;;;;;;;20711126;28;20219;-71
2023/04/01 01:20:21;;;;;;;2.07;0.40;;;;;;;;;;20728481;28;20633;-70
2023/04/01 01:30:32;;;;;;;0.80;0.20;;;;;;;;;;20746417;28;20302;-70
2023/04/01 01:40:35;;;;;;;2.60;0.40;;;;;;;;;;20711376;28;20207;-73
2023/04/01 01:50:37;;;;;;;0.83;0.40;;;11.00;99.90;;;;;;20726065;28;20257;-71
2023/04/01 02:00:42;;;;;;;0.77;0.30;;;11.00;99.90;;;;;;20725660;28;20642;-71
2023/04/01 02:10:52;;;;;;;0.67;0.30;;;10.80;99.90;;;;;;20724390;28;20218;-71
2023/04/01 02:20:57;;;;;;;1.17;0.30;;;;;;;;;;20723931;28;20207;-70
2023/04/01 02:31:02;;;;;;;2.00;0.30;;;;;;;;;;20723064;28;20223;-71
2023/04/01 02:41:06;;;;;;;1.20;0.37;;;;;;;;;;20715233;28;20223;-71
2023/04/01 02:51:08;;;;;;;0.63;0.30;;;;;;;;;;20739528;28;20215;-70
2023/04/01 03:01:10;;;;;;;0.63;0.20;;;;;;;;;;20721961;28;20261;-70
2023/04/01 03:11:12;;;;;;;0.10;0.10;;;;;;;;;;20719818;28;20223;-70
2023/04/01 03:21:15;;;;;;;1.60;0.20;;;;;;;;;;20704247;28;20203;-70
2023/04/01 03:31:17;;;;;;;2.37;0.40;;;;;;;;;;20736076;28;20542;-70
2023/04/01 03:41:25;;;;;;;0.53;0.30;;;;;;;;;;20717977;28;20234;-71
2023/04/01 03:51:27;;;;;;;0.23;0.20;;;;;;;;;;20808839;22;20229;-70
2023/04/01 04:01:29;;;;;;;0.10;0.10;;;;;;;;;;20901282;28;20197;-70
2023/04/01 04:11:32;;;;;;;1.20;0.40;;;;;;;;;;20883274;28;20229;-70
2023/04/01 04:21:34;;;;;;;0.60;0.30;;;;;;;;;;20883997;28;20206;-70
2023/04/01 04:31:36;;;;;;;0.30;0.10;;;;;;;;;;20900580;28;20217;-70
2023/04/01 04:41:38;;;;;;;0.40;0.20;;;10.70;99.90;;;;;;20883081;28;20206;-70
2023/04/01 04:51:40;;;;;;;0.27;0.20;;;10.40;99.90;;;;;;20910139;28;20225;-70
2023/04/01 05:01:42;;;;;;;0.47;0.40;;;;;;;;;;20913109;28;20225;-70
2023/04/01 05:11:44;;;;;;;0.20;0.20;;;;;;;;;;20893821;28;20255;-70
2023/04/01 05:21:46;;;;;;;0.10;0.10;;;;;;;;;;20911336;28;20591;-70
2023/04/01 05:31:48;;;;;;;0.40;0.20;;;;;;;;;;20909920;28;20643;-70
2023/04/01 05:41:50;;;;;;;0.93;0.30;;;;;;;;;;20905993;28;20266;-70
2023/04/01 05:51:52;;;;;;;0.30;0.30;;;;;;;;;;20899586;28;20238;-70
2023/04/01 06:01:54;;;;;;;0.20;0.20;;;;;;;;;;20908526;28;20263;-70
2023/04/01 06:12:08;;;;;;;0.10;0.10;;;;;;;;;;20902644;28;20233;-70
2023/04/01 06:22:44;;;;;;;1.13;0.50;;;10.20;99.90;;;;;;20905732;28;20209;-70
2023/04/01 06:32:58;;;;;;;0.20;0.20;;;10.30;99.90;;;;;;20905872;28;20283;-69
2023/04/01 06:43:01;;;;;;;0.20;0.20;;;;;;;;;;20898739;28;20202;-69
2023/04/01 06:53:39;;;;;;;0.00;0.00;;;10.30;99.90;;;;;;20904656;28;20251;-69
2023/04/01 07:04:02;;;;;;;0.00;0.00;;;;;;;;;;20903347;28;20229;-69
2023/04/01 07:14:15;;;;;;;0.07;0.07;;;10.20;99.90;;;;;;20900728;28;20279;-69
2023/04/01 07:24:39;;;;;;;0.20;0.10;;;10.30;99.90;;;;;;20882663;28;20213;-70
2023/04/01 07:34:43;;;;;;;0.10;0.10;;;;;;;;;;20902960;28;20240;-70
2023/04/01 07:44:53;;;;;;;0.30;0.30;;;;;;;;;;20887881;28;20210;-69
2023/04/01 07:54:55;;;;;;;0.20;0.13;;;;;;;;;;20799219;28;20305;-69
2023/04/01 08:05:17;;;;;;;0.30;0.20;;;10.80;99.90;;;;;;20818727;28;20202;-69
2023/04/01 08:15:26;;;;;;;0.10;0.10;;;;;;;;;;20816549;28;20249;-69
2023/04/01 08:25:41;;;;;;;0.10;0.10;;;;;;;;;;20914793;28;20296;-69
2023/04/01 08:35:52;;;;;;;0.23;0.17;;;10.70;99.90;;;;;;20915781;28;20561;-69
2023/04/01 08:46:13;;;;;;;0.97;0.30;;;10.70;99.90;;;;;;20906928;28;20704;-69
2023/04/01 08:56:15;;;;;;;0.20;0.20;;;;;;;;;;20898963;28;20221;-69
2023/04/01 09:06:19;;;;;;;0.27;0.20;;;;;;;;;;20907130;28;20243;-69
2023/04/01 09:16:36;;;;;;;0.23;0.20;;;;;;;;;;20881124;28;20222;-69
2023/04/01 09:26:45;;;;;;;0.20;0.20;;;11.10;99.90;;;;;;20934895;28;20208;-69
2023/04/01 09:36:59;;;;;;;0.23;0.23;;;11.30;99.90;;;;;;20909315;28;20225;-69
2023/04/01 09:47:14;;;;;;;0.87;0.10;;;;;;;;;;20924273;28;20213;-70
2023/04/01 09:57:28;;;;;;;0.10;0.10;;;;;;;;;;20930205;28;20221;-69
2023/04/01 10:07:44;;;;;;;0.20;0.20;;;;;;;;;;20937003;22;20226;-73
2023/04/01 10:18:04;;;;;;;4.33;2.60;;;;;;;;;;20889022;28;20210;-70
2023/04/01 10:28:27;;;;;;;0.77;0.30;;;;;;;;;;20882625;28;20263;-71
2023/04/01 10:39:01;;;;;;;0.30;0.30;;;;;;;;;;20821759;28;20270;-71
2023/04/01 10:49:15;;;;;;;0.30;0.30;;;;;;;;;;20821562;28;20207;-70
2023/04/01 10:59:34;;;;;;;0.10;0.10;;;11.90;99.90;;;;;;20820425;28;20618;-70
2023/04/01 11:10:17;;;;;;;0.20;0.20;;;12.00;99.90;;;;;;20790183;28;20231;-70
2023/04/01 11:20:51;;;;;;;0.10;0.10;;;;;;;;;;20818405;28;20214;-71
2023/04/01 11:31:06;;;;;;;0.10;0.10;;;11.90;99.90;;;;;;20818101;28;20577;-70
2023/04/01 11:41:14;;;;;;;0.10;0.10;;;11.90;99.90;;;;;;20799430;28;20517;-72
2023/04/01 11:51:37;;;;;;;0.10;0.10;;;11.90;99.90;;;;;;20817894;28;20755;-72
2023/04/01 12:01:58;;;;;;;0.20;0.20;;;;;;;;;;20892426;28;20225;-72
2023/04/01 12:12:18;;;;;;;0.20;0.20;;;;;;;;;;20902090;28;20213;-71
2023/04/01 12:22:39;;;;;;;0.10;0.10;;;;;;;;;;20900675;28;20210;-71
2023/04/01 12:32:56;;;;;;;0.70;0.40;;;;;;;;;;20911382;28;20260;-70
2023/04/01 12:43:06;;;;;;;0.10;0.10;;;;;;;;;;20912991;28;20206;-70
2023/04/01 12:53:39;;;;;;;0.70;0.30;;;;;;;;;;20913643;28;20213;-70
2023/04/01 13:04:08;;;;;;;0.20;0.20;;;11.90;99.90;;;;;;20904530;28;20272;-70
2023/04/01 13:14:27;;;;;;;0.40;0.23;;;12.00;99.90;;;;;;20910611;28;20282;-70
2023/04/01 13:24:42;;;;;;;0.20;0.20;;;;;;;;;;20910948;28;20202;-71
2023/04/01 13:34:50;;;;;;;0.10;0.10;;;;;;;;;;20910052;28;20551;-70
2023/04/01 13:45:02;;;;;;;0.23;0.23;;;;;;;;;;20909245;28;20267;-70
2023/04/01 13:55:04;;;;;;;0.30;0.20;;;;;;;;;;20909557;28;20287;-70
2023/04/01 14:05:09;;;;;;;0.30;0.30;;;;;;;;;;20908042;28;20282;-70
2023/04/01 14:15:21;;;;;;;0.20;0.20;;;;;;;;;;20907433;28;20228;-70
2023/04/01 14:25:33;;;;;;;0.10;0.10;;;12.30;99.90;;;;;;20888275;28;20263;-70
2023/04/01 14:35:39;;;;;;;0.20;0.20;;;;;;;;;;20904530;28;20218;-70
2023/04/01 14:45:44;;;;;;;0.10;0.10;;;;;;;;;;20905298;28;20210;-70
2023/04/01 14:55:50;;;;;;;0.30;0.20;;;;;;;;;;20903540;28;20710;-71
2023/04/01 15:06:10;;;;;;;0.27;0.20;;;;;;;;;;20901514;28;20363;-71
2023/04/01 15:16:39;;;;;;;0.63;0.20;;;12.10;99.90;;;;;;20902320;28;20210;-70
2023/04/01 15:27:07;;;;;;;0.57;0.30;;;12.20;99.90;;;;;;20901656;28;20252;-71
2023/04/01 15:37:27;;;;;;;0.20;0.20;;;12.30;99.90;;;;;;20899658;28;20271;-71
2023/04/01 15:47:34;;;;;;;0.20;0.20;;;;;;;;;;20898377;28;20255;-70
2023/04/01 15:57:46;;;;;;;0.20;0.20;;;;;;;;;;20898545;28;20236;-71
2023/04/01 16:08:13;;;;;;;0.40;0.40;;;;;;;;;;20899892;28;20244;-71
2023/04/01 16:18:27;;;;;;;0.20;0.20;;;;;;;;;;20841622;22;20273;-70
2023/04/01 16:28:35;;;;;;;0.10;0.10;;;;;;;;;;20725850;28;21045;-69
2023/04/01 16:38:46;;;;;;;0.23;0.23;;;;;;;;;;20726733;28;20756;-69
2023/04/01 16:49:07;;;;;;;0.40;0.40;;;;;;;;;;20749279;28;20214;-70
2023/04/01 16:59:36;;;;;;;1.53;0.87;;;12.30;99.90;;;;;;20750248;28;20203;-69
2023/04/01 17:10:07;;;;;;;0.20;0.20;;;;;;;;;;20741002;28;20282;-70
2023/04/01 17:20:40;;;;;;;0.20;0.20;;;12.10;99.90;;;;;;20704602;28;20231;-69
2023/04/01 17:30:51;;;;;;;0.20;0.20;;;;;;;;;;20747292;28;20231;-69
2023/04/01 17:41:39;;;;;;;0.20;0.20;;;11.80;99.90;;;;;;20741162;28;20218;-69
2023/04/01 17:51:55;;;;;;;0.20;0.20;;;11.80;99.90;;;;;;20745199;28;20227;-69
2023/04/01 18:02:31;;;;;;;0.20;0.20;;;11.80;99.90;;;;;;20737320;28;20235;-68
2023/04/01 18:12:38;;;;;;;1.23;0.10;;;;;;;;;;20745267;28;20219;-69
2023/04/01 18:22:40;;;;;;;1.67;0.80;;;;;;;;;;20745664;28;20710;-69
2023/04/01 18:32:48;;;;;;;0.10;0.10;;;;;;;;;;20719021;28;20222;-69
2023/04/01 18:43:13;;;;;;;0.50;0.23;;;;;;;;;;20731675;28;20293;-69
2023/04/01 18:53:38;;;;;;;0.60;0.30;;;11.60;99.90;;;;;;20705033;28;20262;-69
2023/04/01 19:04:02;;;;;;;0.77;0.50;;;11.40;99.90;;;;;;20739978;28;20310;-69
2023/04/01 19:14:16;;;;;;;0.80;0.50;;;;;;;;;;20740065;28;20215;-69
2023/04/01 19:24:33;;;;;;;1.73;0.60;;;;;;;;;;20740330;28;20231;-69
2023/04/01 19:34:58;;;;;;;2.93;1.50;;;11.40;99.90;;;;;;20738183;28;20577;-69
2023/04/01 19:45:19;;;;;;;0.30;0.30;;;;;;;;;;20737940;28;20184;-68
2023/04/01 19:55:45;;;;;;;0.40;0.30;;;11.50;99.90;;;;;;20742241;28;20214;-69
2023/04/01 20:06:07;;;;;;;1.07;0.30;;;11.40;99.90;;;;;;20738573;28;20227;-69
2023/04/01 20:16:11;;;;;;;0.60;0.40;;;11.60;99.90;;;;;;20738980;28;20269;-69
2023/04/01 20:26:19;;;;;;;0.27;0.27;;;11.30;99.90;;;;;;20753234;28;20212;-68
2023/04/01 20:36:30;;;;;;;0.43;0.43;;;;;;;;;;20753418;28;20215;-69
2023/04/01 20:46:42;;;;;;;0.23;0.23;;;11.30;99.90;;;;;;20751250;28;20222;-69
2023/04/01 20:56:45;;;;;;;0.30;0.30;;;;;;;;;;20751063;28;20269;-68
2023/04/01 21:07:12;;;;;;;0.40;0.30;;;11.30;99.90;;;;;;20750852;28;20257;-68
2023/04/01 21:17:26;;;;;;;0.50;0.30;;;;;;;;;;20748960;28;20226;-68
2023/04/01 21:27:45;;;;;;;0.30;0.30;;;11.20;99.90;;;;;;20747145;28;20269;-68
2023/04/01 21:38:00;;;;;;;0.10;0.10;;;11.10;99.90;;;;;;20745334;28;20324;-68
2023/04/01 21:48:27;;;;;;;0.30;0.30;;;11.20;99.90;;;;;;20745834;28;20269;-68
2023/04/01 21:58:47;;;;;;;0.20;0.20;;;;;;;;;;20745916;28;20223;-68
2023/04/01 22:09:03;;;;;;;0.40;0.30;;;;;;;;;;20745560;28;20199;-69
2023/04/01 22:19:12;;;;;;;3.30;0.37;;;;;;;;;;20745205;28;20582;-68
2023/04/01 22:29:18;;;;;;;2.73;0.50;;;;;;;;;;20744407;28;20207;-68
2023/04/01 22:39:23;;;;;;;0.20;0.20;;;;;;;;;;20737349;28;20227;-69
2023/04/01 22:49:59;;;;;;;0.20;0.20;;;11.10;99.90;;;;;;20724032;28;20223;-68
2023/04/01 23:00:14;;;;;;;0.20;0.20;;;;;;;;;;20741074;28;20215;-68
2023/04/01 23:10:19;;;;;;;0.20;0.20;;;;;;;;;;20741054;28;20694;-68
2023/04/01 23:20:40;;;;;;;0.40;0.30;;;;;;;;;;20739082;28;20580;-69
2023/04/01 23:30:41;;;;;;;0.20;0.20;;;;;;;;;;20737676;28;20241;-68
2023/04/01 23:40:45;;;;;;;0.20;0.20;;;;;;;;;;20738372;28;20227;-69
2023/04/01 23:50:46;;;;;;;0.77;0.30;;;;;;;;;;20736915;28;20215;-69
